sensor_id;sensor_type;location;lat;lon;timestamp;pressure;altitude;pressure_sealevel;temperature;humidity
50672;BME280;46021;55.882;37.654;2022-12-10T00:01:39;99431.06;;;-4.70;79.13
50672;BME280;46021;55.882;37.654;2022-12-10T00:04:07;99437.06;;;-4.67;80.05
50672;BME280;46021;55.882;37.654;2022-12-10T00:06:36;99443.69;;;-4.73;79.76
50672;BME280;46021;55.882;37.654;2022-12-10T00:09:06;99441.75;;;-4.83;79.54
50672;BME280;46021;55.882;37.654;2022-12-10T00:11:34;99445.03;;;-4.87;79.81
50672;BME280;46021;55.882;37.654;2022-12-10T00:14:01;99440.81;;;-4.86;79.53
50672;BME280;46021;55.882;37.654;2022-12-10T00:16:29;99430.75;;;-4.83;80.25
50672;BME280;46021;55.882;37.654;2022-12-10T00:18:56;99439.31;;;-4.78;79.82
50672;BME280;46021;55.882;37.654;2022-12-10T00:21:25;99453.88;;;-4.73;80.07
50672;BME280;46021;55.882;37.654;2022-12-10T00:23:54;99442.00;;;-4.74;80.22
50672;BME280;46021;55.882;37.654;2022-12-10T00:26:23;99448.03;;;-4.70;79.96
50672;BME280;46021;55.882;37.654;2022-12-10T00:28:51;99434.41;;;-4.72;80.28
50672;BME280;46021;55.882;37.654;2022-12-10T00:31:22;99427.81;;;-4.64;80.59
50672;BME280;46021;55.882;37.654;2022-12-10T00:33:50;99430.41;;;-4.62;79.94
50672;BME280;46021;55.882;37.654;2022-12-10T00:36:21;99431.91;;;-4.71;80.52
50672;BME280;46021;55.882;37.654;2022-12-10T00:38:48;99427.63;;;-4.72;80.43
50672;BME280;46021;55.882;37.654;2022-12-10T00:41:17;99441.28;;;-4.68;80.92
50672;BME280;46021;55.882;37.654;2022-12-10T00:43:45;99431.97;;;-4.67;79.57
50672;BME280;46021;55.882;37.654;2022-12-10T00:46:12;99421.06;;;-4.63;80.05
50672;BME280;46021;55.882;37.654;2022-12-10T00:48:40;99414.44;;;-4.57;80.10
50672;BME280;46021;55.882;37.654;2022-12-10T00:51:09;99414.59;;;-4.51;79.83
50672;BME280;46021;55.882;37.654;2022-12-10T00:53:38;99399.38;;;-4.49;80.63
50672;BME280;46021;55.882;37.654;2022-12-10T00:56:07;99403.84;;;-4.39;80.68
50672;BME280;46021;55.882;37.654;2022-12-10T00:58:37;99394.41;;;-4.43;79.33
50672;BME280;46021;55.882;37.654;2022-12-10T01:01:08;99401.34;;;-4.37;79.22
50672;BME280;46021;55.882;37.654;2022-12-10T01:03:37;99414.00;;;-4.39;80.21
50672;BME280;46021;55.882;37.654;2022-12-10T01:06:09;99423.53;;;-4.32;79.68
50672;BME280;46021;55.882;37.654;2022-12-10T01:08:37;99419.38;;;-4.28;79.01
50672;BME280;46021;55.882;37.654;2022-12-10T01:11:04;99416.78;;;-4.29;79.71
50672;BME280;46021;55.882;37.654;2022-12-10T01:13:31;99397.19;;;-4.34;79.91
50672;BME280;46021;55.882;37.654;2022-12-10T01:16:01;99405.72;;;-4.32;79.30
50672;BME280;46021;55.882;37.654;2022-12-10T01:18:29;99387.03;;;-4.32;80.29
50672;BME280;46021;55.882;37.654;2022-12-10T01:21:00;99381.09;;;-4.33;80.16
50672;BME280;46021;55.882;37.654;2022-12-10T01:23:27;99391.28;;;-4.31;80.02
50672;BME280;46021;55.882;37.654;2022-12-10T01:25:59;99391.41;;;-4.26;80.30
50672;BME280;46021;55.882;37.654;2022-12-10T01:28:29;99397.47;;;-4.21;79.51
50672;BME280;46021;55.882;37.654;2022-12-10T01:31:01;99391.63;;;-4.17;80.44
50672;BME280;46021;55.882;37.654;2022-12-10T01:33:31;99392.59;;;-4.11;80.50
50672;BME280;46021;55.882;37.654;2022-12-10T01:36:02;99390.13;;;-4.07;79.87
50672;BME280;46021;55.882;37.654;2022-12-10T01:38:29;99381.56;;;-4.11;80.71
50672;BME280;46021;55.882;37.654;2022-12-10T01:40:57;99389.13;;;-4.14;79.70
50672;BME280;46021;55.882;37.654;2022-12-10T01:43:24;99390.03;;;-4.12;79.09
50672;BME280;46021;55.882;37.654;2022-12-10T01:45:52;99398.63;;;-4.07;80.28
50672;BME280;46021;55.882;37.654;2022-12-10T01:48:20;99391.06;;;-4.04;79.84
50672;BME280;46021;55.882;37.654;2022-12-10T01:50:47;99391.13;;;-4.01;80.14
50672;BME280;46021;55.882;37.654;2022-12-10T01:53:14;99392.94;;;-3.97;79.75
50672;BME280;46021;55.882;37.654;2022-12-10T01:55:47;99398.91;;;-3.95;80.42
50672;BME280;46021;55.882;37.654;2022-12-10T01:58:16;99400.69;;;-3.90;80.16
50672;BME280;46021;55.882;37.654;2022-12-10T02:01:02;99391.41;;;-3.88;80.31
50672;BME280;46021;55.882;37.654;2022-12-10T02:03:39;99393.13;;;-3.87;79.78
50672;BME280;46021;55.882;37.654;2022-12-10T02:06:29;99392.97;;;-3.94;79.09
50672;BME280;46021;55.882;37.654;2022-12-10T02:09:07;99384.41;;;-3.99;79.19
50672;BME280;46021;55.882;37.654;2022-12-10T02:11:42;99394.59;;;-3.99;79.49
50672;BME280;46021;55.882;37.654;2022-12-10T02:14:17;99388.56;;;-4.01;80.10
50672;BME280;46021;55.882;37.654;2022-12-10T02:16:53;99379.22;;;-4.02;80.10
50672;BME280;46021;55.882;37.654;2022-12-10T02:19:35;99392.84;;;-4.00;80.18
50672;BME280;46021;55.882;37.654;2022-12-10T02:22:08;99379.28;;;-4.00;80.47
50672;BME280;46021;55.882;37.654;2022-12-10T02:24:38;99390.13;;;-4.07;80.58
50672;BME280;46021;55.882;37.654;2022-12-10T02:27:10;99396.03;;;-4.10;79.47
50672;BME280;46021;55.882;37.654;2022-12-10T02:29:41;99395.16;;;-4.11;79.57
50672;BME280;46021;55.882;37.654;2022-12-10T02:32:12;99400.25;;;-4.11;78.88
50672;BME280;46021;55.882;37.654;2022-12-10T02:34:42;99382.47;;;-4.09;80.24
50672;BME280;46021;55.882;37.654;2022-12-10T02:37:15;99372.16;;;-4.15;79.82
50672;BME280;46021;55.882;37.654;2022-12-10T02:39:47;99384.94;;;-4.12;79.46
50672;BME280;46021;55.882;37.654;2022-12-10T02:42:17;99387.47;;;-4.12;80.11
50672;BME280;46021;55.882;37.654;2022-12-10T02:44:48;99371.31;;;-4.14;79.86
50672;BME280;46021;55.882;37.654;2022-12-10T02:47:20;99370.41;;;-4.16;79.61
50672;BME280;46021;55.882;37.654;2022-12-10T02:49:50;99371.25;;;-4.17;79.88
50672;BME280;46021;55.882;37.654;2022-12-10T02:52:20;99372.06;;;-4.18;80.04
50672;BME280;46021;55.882;37.654;2022-12-10T02:54:51;99361.91;;;-4.18;79.16
50672;BME280;46021;55.882;37.654;2022-12-10T02:57:35;99357.56;;;-4.22;79.61
50672;BME280;46021;55.882;37.654;2022-12-10T03:00:10;99358.47;;;-4.20;80.05
50672;BME280;46021;55.882;37.654;2022-12-10T03:03:18;99357.69;;;-4.16;79.94
50672;BME280;46021;55.882;37.654;2022-12-10T03:05:53;99350.91;;;-4.17;80.61
50672;BME280;46021;55.882;37.654;2022-12-10T03:08:25;99355.09;;;-4.19;79.39
50672;BME280;46021;55.882;37.654;2022-12-10T03:10:59;99357.72;;;-4.15;80.49
50672;BME280;46021;55.882;37.654;2022-12-10T03:13:32;99358.66;;;-4.11;79.74
50672;BME280;46021;55.882;37.654;2022-12-10T03:16:02;99357.09;;;-4.06;80.50
50672;BME280;46021;55.882;37.654;2022-12-10T03:18:32;99358.81;;;-4.03;79.85
50672;BME280;46021;55.882;37.654;2022-12-10T03:21:03;99358.88;;;-4.02;80.37
50672;BME280;46021;55.882;37.654;2022-12-10T03:23:32;99366.53;;;-4.00;80.43
50672;BME280;46021;55.882;37.654;2022-12-10T03:26:00;99355.47;;;-4.01;79.64
50672;BME280;46021;55.882;37.654;2022-12-10T03:28:32;99364.09;;;-3.96;79.68
50672;BME280;46021;55.882;37.654;2022-12-10T03:31:04;99364.09;;;-3.96;79.67
50672;BME280;46021;55.882;37.654;2022-12-10T03:33:31;99358.88;;;-4.02;79.85
50672;BME280;46021;55.882;37.654;2022-12-10T03:35:59;99353.75;;;-4.03;79.04
50672;BME280;46021;55.882;37.654;2022-12-10T03:38:27;99358.75;;;-4.08;79.40
50672;BME280;46021;55.882;37.654;2022-12-10T03:40:54;99363.84;;;-4.08;78.76
50672;BME280;46021;55.882;37.654;2022-12-10T03:43:22;99361.16;;;-4.13;80.33
50672;BME280;46021;55.882;37.654;2022-12-10T03:45:49;99343.28;;;-4.17;79.57
50672;BME280;46021;55.882;37.654;2022-12-10T03:48:18;99357.78;;;-4.13;78.95
50672;BME280;46021;55.882;37.654;2022-12-10T03:50:45;99357.78;;;-4.13;79.42
50672;BME280;46021;55.882;37.654;2022-12-10T03:53:12;99362.03;;;-4.12;78.66
50672;BME280;46021;55.882;37.654;2022-12-10T03:55:39;99355.22;;;-4.13;79.15
50672;BME280;46021;55.882;37.654;2022-12-10T03:58:06;99356.09;;;-4.13;79.77
50672;BME280;46021;55.882;37.654;2022-12-10T04:00:33;99363.75;;;-4.11;79.69
50672;BME280;46021;55.882;37.654;2022-12-10T04:03:01;99368.03;;;-4.08;79.95
50672;BME280;46021;55.882;37.654;2022-12-10T04:05:29;99362.09;;;-4.09;78.34
50672;BME280;46021;55.882;37.654;2022-12-10T04:07:56;99367.28;;;-4.06;78.89
50672;BME280;46021;55.882;37.654;2022-12-10T04:10:23;99358.75;;;-4.06;79.02
50672;BME280;46021;55.882;37.654;2022-12-10T04:12:50;99357.13;;;-4.03;78.95
50672;BME280;46021;55.882;37.654;2022-12-10T04:15:31;99354.69;;;-3.98;79.50
50672;BME280;46021;55.882;37.654;2022-12-10T04:18:16;99365.00;;;-3.92;78.18
50672;BME280;46021;55.882;37.654;2022-12-10T04:20:44;99353.13;;;-3.92;79.19
50672;BME280;46021;55.882;37.654;2022-12-10T04:23:29;99364.19;;;-3.89;79.06
50672;BME280;46021;55.882;37.654;2022-12-10T04:26:13;99369.28;;;-3.89;78.48
50672;BME280;46021;55.882;37.654;2022-12-10T04:28:58;99353.97;;;-3.93;78.18
50672;BME280;46021;55.882;37.654;2022-12-10T04:31:25;99369.25;;;-3.93;78.59
50672;BME280;46021;55.882;37.654;2022-12-10T04:33:52;99357.28;;;-3.97;78.32
50672;BME280;46021;55.882;37.654;2022-12-10T04:36:20;99379.56;;;-3.86;78.41
50672;BME280;46021;55.882;37.654;2022-12-10T04:38:48;99384.56;;;-3.89;79.09
50672;BME280;46021;55.882;37.654;2022-12-10T04:41:15;99385.47;;;-3.89;78.25
50672;BME280;46021;55.882;37.654;2022-12-10T04:43:42;99365.66;;;-4.01;79.45
50672;BME280;46021;55.882;37.654;2022-12-10T04:46:10;99375.13;;;-3.95;78.99
50672;BME280;46021;55.882;37.654;2022-12-10T04:48:38;99366.59;;;-3.97;78.79
50672;BME280;46021;55.882;37.654;2022-12-10T04:51:05;99359.84;;;-3.95;79.58
50672;BME280;46021;55.882;37.654;2022-12-10T04:53:33;99369.38;;;-3.86;79.50
50672;BME280;46021;55.882;37.654;2022-12-10T04:56:00;99377.97;;;-3.81;77.92
50672;BME280;46021;55.882;37.654;2022-12-10T04:58:30;99378.88;;;-3.79;79.07
50672;BME280;46021;55.882;37.654;2022-12-10T05:01:01;99369.50;;;-3.82;78.66
50672;BME280;46021;55.882;37.654;2022-12-10T05:03:28;99371.25;;;-3.78;77.83
50672;BME280;46021;55.882;37.654;2022-12-10T05:05:56;99369.56;;;-3.77;78.93
50672;BME280;46021;55.882;37.654;2022-12-10T05:08:27;99364.47;;;-3.77;79.37
50672;BME280;46021;55.882;37.654;2022-12-10T05:10:56;99355.94;;;-3.79;77.85
50672;BME280;46021;55.882;37.654;2022-12-10T05:13:27;99359.34;;;-3.79;78.75
50672;BME280;46021;55.882;37.654;2022-12-10T05:15:54;99357.66;;;-3.78;78.61
50672;BME280;46021;55.882;37.654;2022-12-10T05:18:21;99351.66;;;-3.82;78.86
50672;BME280;46021;55.882;37.654;2022-12-10T05:20:48;99352.41;;;-3.87;78.83
50672;BME280;46021;55.882;37.654;2022-12-10T05:23:15;99356.75;;;-3.82;78.61
50672;BME280;46021;55.882;37.654;2022-12-10T05:26:06;99364.41;;;-3.80;78.83
50672;BME280;46021;55.882;37.654;2022-12-10T05:28:36;99359.31;;;-3.80;79.25
50672;BME280;46021;55.882;37.654;2022-12-10T05:31:05;99360.97;;;-3.82;78.21
50672;BME280;46021;55.882;37.654;2022-12-10T05:33:32;99359.25;;;-3.83;77.97
50672;BME280;46021;55.882;37.654;2022-12-10T05:36:00;99348.06;;;-3.90;78.60
50672;BME280;46021;55.882;37.654;2022-12-10T05:38:30;99348.03;;;-3.92;79.02
50672;BME280;46021;55.882;37.654;2022-12-10T05:41:01;99342.91;;;-3.95;78.99
50672;BME280;46021;55.882;37.654;2022-12-10T05:43:31;99353.28;;;-3.85;78.01
50672;BME280;46021;55.882;37.654;2022-12-10T05:46:02;99341.47;;;-3.82;78.81
50672;BME280;46021;55.882;37.654;2022-12-10T05:48:29;99354.28;;;-3.77;79.50
50672;BME280;46021;55.882;37.654;2022-12-10T05:50:56;99369.63;;;-3.74;78.10
50672;BME280;46021;55.882;37.654;2022-12-10T05:53:23;99365.41;;;-3.74;79.09
50672;BME280;46021;55.882;37.654;2022-12-10T05:55:59;99365.25;;;-3.81;78.71
50672;BME280;46021;55.882;37.654;2022-12-10T05:58:27;99375.47;;;-3.78;79.23
50672;BME280;46021;55.882;37.654;2022-12-10T06:00:56;99368.72;;;-3.78;78.51
50672;BME280;46021;55.882;37.654;2022-12-10T06:03:24;99367.91;;;-3.75;78.80
50672;BME280;46021;55.882;37.654;2022-12-10T06:05:51;99362.00;;;-3.73;79.24
50672;BME280;46021;55.882;37.654;2022-12-10T06:08:19;99357.81;;;-3.70;78.67
50672;BME280;46021;55.882;37.654;2022-12-10T06:10:46;99356.09;;;-3.72;78.09
50672;BME280;46021;55.882;37.654;2022-12-10T06:13:13;99362.81;;;-3.75;78.99
50672;BME280;46021;55.882;37.654;2022-12-10T06:15:42;99349.28;;;-3.74;78.75
50672;BME280;46021;55.882;37.654;2022-12-10T06:18:11;99339.97;;;-3.72;78.49
50672;BME280;46021;55.882;37.654;2022-12-10T06:20:39;99333.94;;;-3.76;79.24
50672;BME280;46021;55.882;37.654;2022-12-10T06:23:07;99344.28;;;-3.68;77.93
50672;BME280;46021;55.882;37.654;2022-12-10T06:25:37;99347.66;;;-3.69;78.14
50672;BME280;46021;55.882;37.654;2022-12-10T06:28:04;99342.56;;;-3.69;78.38
50672;BME280;46021;55.882;37.654;2022-12-10T06:30:32;99343.41;;;-3.70;77.90
50672;BME280;46021;55.882;37.654;2022-12-10T06:32:59;99348.56;;;-3.65;78.02
50672;BME280;46021;55.882;37.654;2022-12-10T06:35:28;99339.16;;;-3.69;79.19
50672;BME280;46021;55.882;37.654;2022-12-10T06:37:55;99337.53;;;-3.66;78.33
50672;BME280;46021;55.882;37.654;2022-12-10T06:40:22;99335.94;;;-3.61;77.87
50672;BME280;46021;55.882;37.654;2022-12-10T06:42:50;99351.34;;;-3.55;78.14
50672;BME280;46021;55.882;37.654;2022-12-10T06:45:18;99346.25;;;-3.55;79.21
50672;BME280;46021;55.882;37.654;2022-12-10T06:47:45;99340.41;;;-3.49;78.49
50672;BME280;46021;55.882;37.654;2022-12-10T06:50:12;99340.47;;;-3.46;78.56
50672;BME280;46021;55.882;37.654;2022-12-10T06:52:41;99340.34;;;-3.52;77.86
50672;BME280;46021;55.882;37.654;2022-12-10T06:55:08;99341.13;;;-3.56;79.16
50672;BME280;46021;55.882;37.654;2022-12-10T06:57:35;99339.47;;;-3.53;78.94
50672;BME280;46021;55.882;37.654;2022-12-10T07:00:03;99339.44;;;-3.54;78.52
50672;BME280;46021;55.882;37.654;2022-12-10T07:02:31;99339.56;;;-3.48;78.32
50672;BME280;46021;55.882;37.654;2022-12-10T07:04:59;99339.72;;;-3.40;77.93
50672;BME280;46021;55.882;37.654;2022-12-10T07:07:26;99334.69;;;-3.37;78.69
50672;BME280;46021;55.882;37.654;2022-12-10T07:09:54;99331.16;;;-3.42;77.91
50672;BME280;46021;55.882;37.654;2022-12-10T07:12:21;99337.13;;;-3.43;78.19
50672;BME280;46021;55.882;37.654;2022-12-10T07:14:49;99341.50;;;-3.36;78.41
50672;BME280;46021;55.882;37.654;2022-12-10T07:17:16;99344.94;;;-3.34;78.46
50672;BME280;46021;55.882;37.654;2022-12-10T07:19:43;99332.91;;;-3.41;77.68
50672;BME280;46021;55.882;37.654;2022-12-10T07:22:11;99331.25;;;-3.39;77.70
50672;BME280;46021;55.882;37.654;2022-12-10T07:24:38;99331.22;;;-3.41;78.86
50672;BME280;46021;55.882;37.654;2022-12-10T07:27:07;99345.81;;;-3.32;78.55
50672;BME280;46021;55.882;37.654;2022-12-10T07:29:35;99348.44;;;-3.27;77.92
50672;BME280;46021;55.882;37.654;2022-12-10T07:32:02;99347.59;;;-3.28;78.90
50672;BME280;46021;55.882;37.654;2022-12-10T07:34:30;99351.03;;;-3.26;78.43
50672;BME280;46021;55.882;37.654;2022-12-10T07:36:57;99345.81;;;-3.32;77.91
50672;BME280;46021;55.882;37.654;2022-12-10T07:39:24;99346.63;;;-3.33;77.38
50672;BME280;46021;55.882;37.654;2022-12-10T07:41:52;99346.53;;;-3.39;78.31
50672;BME280;46021;55.882;37.654;2022-12-10T07:44:22;99351.56;;;-3.42;79.45
50672;BME280;46021;55.882;37.654;2022-12-10T07:46:51;99348.94;;;-3.47;78.05
50672;BME280;46021;55.882;37.654;2022-12-10T07:49:19;99347.38;;;-3.39;78.32
50672;BME280;46021;55.882;37.654;2022-12-10T07:51:46;99347.47;;;-3.34;78.92
50672;BME280;46021;55.882;37.654;2022-12-10T07:54:14;99343.19;;;-3.35;78.36
50672;BME280;46021;55.882;37.654;2022-12-10T07:56:42;99340.66;;;-3.35;79.23
50672;BME280;46021;55.882;37.654;2022-12-10T07:59:09;99346.69;;;-3.30;79.06
50672;BME280;46021;55.882;37.654;2022-12-10T08:01:37;99342.56;;;-3.23;78.99
50672;BME280;46021;55.882;37.654;2022-12-10T08:04:05;99332.38;;;-3.23;78.56
50672;BME280;46021;55.882;37.654;2022-12-10T08:06:32;99333.34;;;-3.17;78.97
50672;BME280;46021;55.882;37.654;2022-12-10T08:09:00;99333.25;;;-3.23;78.48
50672;BME280;46021;55.882;37.654;2022-12-10T08:11:28;99331.59;;;-3.21;77.89
50672;BME280;46021;55.882;37.654;2022-12-10T08:13:55;99337.63;;;-3.16;78.09
50672;BME280;46021;55.882;37.654;2022-12-10T08:16:24;99336.78;;;-3.15;78.08
50672;BME280;46021;55.882;37.654;2022-12-10T08:18:55;99324.72;;;-3.25;78.87
50672;BME280;46021;55.882;37.654;2022-12-10T08:21:25;99338.09;;;-3.35;79.69
50672;BME280;46021;55.882;37.654;2022-12-10T08:23:53;99328.91;;;-3.28;78.78
50672;BME280;46021;55.882;37.654;2022-12-10T08:26:23;99334.09;;;-3.22;78.41
50672;BME280;46021;55.882;37.654;2022-12-10T08:28:51;99323.84;;;-3.25;79.60
50672;BME280;46021;55.882;37.654;2022-12-10T08:31:20;99331.47;;;-3.27;79.25
50672;BME280;46021;55.882;37.654;2022-12-10T08:33:47;99328.22;;;-3.18;78.87
50672;BME280;46021;55.882;37.654;2022-12-10T08:36:17;99312.13;;;-3.14;79.23
50672;BME280;46021;55.882;37.654;2022-12-10T08:38:45;99328.50;;;-3.01;78.65
50672;BME280;46021;55.882;37.654;2022-12-10T08:41:13;99319.97;;;-3.03;78.70
50672;BME280;46021;55.882;37.654;2022-12-10T08:43:41;99322.59;;;-3.00;79.02
50672;BME280;46021;55.882;37.654;2022-12-10T08:46:09;99319.09;;;-3.05;78.34
50672;BME280;46021;55.882;37.654;2022-12-10T08:48:36;99314.03;;;-3.04;78.15
50672;BME280;46021;55.882;37.654;2022-12-10T08:51:04;99323.41;;;-3.01;78.77
50672;BME280;46021;55.882;37.654;2022-12-10T08:53:34;99320.06;;;-2.97;77.98
50672;BME280;46021;55.882;37.654;2022-12-10T08:56:02;99324.38;;;-2.93;78.82
50672;BME280;46021;55.882;37.654;2022-12-10T08:58:32;99316.72;;;-2.95;78.19
50672;BME280;46021;55.882;37.654;2022-12-10T09:00:59;99320.19;;;-2.91;78.93
50672;BME280;46021;55.882;37.654;2022-12-10T09:03:27;99315.13;;;-2.88;77.91
50672;BME280;46021;55.882;37.654;2022-12-10T09:05:54;99307.50;;;-2.86;78.80
50672;BME280;46021;55.882;37.654;2022-12-10T09:08:21;99305.84;;;-2.84;77.98
50672;BME280;46021;55.882;37.654;2022-12-10T09:10:49;99308.41;;;-2.83;78.23
50672;BME280;46021;55.882;37.654;2022-12-10T09:13:16;99318.75;;;-2.75;78.09
50672;BME280;46021;55.882;37.654;2022-12-10T09:15:49;99318.63;;;-2.83;77.85
50672;BME280;46021;55.882;37.654;2022-12-10T09:18:16;99318.53;;;-2.89;78.67
50672;BME280;46021;55.882;37.654;2022-12-10T09:20:43;99318.47;;;-2.92;77.66
50672;BME280;46021;55.882;37.654;2022-12-10T09:23:11;99326.06;;;-2.97;77.53
50672;BME280;46021;55.882;37.654;2022-12-10T09:25:38;99314.09;;;-2.99;78.82
50672;BME280;46021;55.882;37.654;2022-12-10T09:28:06;99310.75;;;-2.95;79.36
50672;BME280;46021;55.882;37.654;2022-12-10T09:30:33;99301.34;;;-2.99;78.26
50672;BME280;46021;55.882;37.654;2022-12-10T09:33:01;99291.88;;;-3.08;78.98
50672;BME280;46021;55.882;37.654;2022-12-10T09:35:28;99295.16;;;-3.14;78.28
50672;BME280;46021;55.882;37.654;2022-12-10T09:37:55;99304.63;;;-3.08;78.25
50672;BME280;46021;55.882;37.654;2022-12-10T09:40:26;99302.13;;;-3.03;79.36
50672;BME280;46021;55.882;37.654;2022-12-10T09:43:00;99300.44;;;-3.03;79.37
50672;BME280;46021;55.882;37.654;2022-12-10T09:45:36;99291.00;;;-3.08;78.94
50672;BME280;46021;55.882;37.654;2022-12-10T09:48:15;99297.88;;;-3.04;78.63
50672;BME280;46021;55.882;37.654;2022-12-10T09:50:53;99297.91;;;-3.01;78.92
50672;BME280;46021;55.882;37.654;2022-12-10T09:53:23;99292.63;;;-3.14;78.35
50672;BME280;46021;55.882;37.654;2022-12-10T09:55:51;99302.81;;;-3.14;79.43
50672;BME280;46021;55.882;37.654;2022-12-10T09:58:20;99301.09;;;-3.15;78.60
50672;BME280;46021;55.882;37.654;2022-12-10T10:00:52;99302.91;;;-3.07;78.91
50672;BME280;46021;55.882;37.654;2022-12-10T10:03:22;99299.63;;;-2.99;78.91
50672;BME280;46021;55.882;37.654;2022-12-10T10:05:52;99299.66;;;-2.97;79.50
50672;BME280;46021;55.882;37.654;2022-12-10T10:08:24;99292.94;;;-2.94;79.85
50672;BME280;46021;55.882;37.654;2022-12-10T10:10:54;99288.56;;;-3.01;80.08
50672;BME280;46021;55.882;37.654;2022-12-10T10:13:31;99285.13;;;-3.04;80.13
50672;BME280;46021;55.882;37.654;2022-12-10T10:16:13;99287.69;;;-3.04;79.92
50672;BME280;46021;55.882;37.654;2022-12-10T10:18:45;99284.13;;;-3.13;79.35
50672;BME280;46021;55.882;37.654;2022-12-10T10:21:18;99285.78;;;-3.15;79.86
50672;BME280;46021;55.882;37.654;2022-12-10T10:23:49;99290.88;;;-3.15;79.60
50672;BME280;46021;55.882;37.654;2022-12-10T10:26:17;99289.28;;;-3.09;79.75
50672;BME280;46021;55.882;37.654;2022-12-10T10:28:44;99280.84;;;-3.05;80.69
50672;BME280;46021;55.882;37.654;2022-12-10T10:31:18;99265.63;;;-2.99;79.84
50672;BME280;46021;55.882;37.654;2022-12-10T10:33:51;99272.63;;;-2.89;80.62
50672;BME280;46021;55.882;37.654;2022-12-10T10:36:26;99287.28;;;-2.76;80.78
50672;BME280;46021;55.882;37.654;2022-12-10T10:38:55;99280.53;;;-2.70;80.20
50672;BME280;46021;55.882;37.654;2022-12-10T10:41:24;99271.13;;;-2.75;80.17
50672;BME280;46021;55.882;37.654;2022-12-10T10:43:59;99261.69;;;-2.80;79.58
50672;BME280;46021;55.882;37.654;2022-12-10T10:46:34;99254.91;;;-2.78;79.74
50672;BME280;46021;55.882;37.654;2022-12-10T10:49:14;99255.72;;;-2.81;79.37
50672;BME280;46021;55.882;37.654;2022-12-10T10:51:45;99245.38;;;-2.90;80.32
50672;BME280;46021;55.882;37.654;2022-12-10T10:54:31;99248.84;;;-2.86;80.11
50672;BME280;46021;55.882;37.654;2022-12-10T10:57:02;99239.41;;;-2.92;79.75
50672;BME280;46021;55.882;37.654;2022-12-10T10:59:32;99237.00;;;-2.83;80.28
50672;BME280;46021;55.882;37.654;2022-12-10T11:02:04;99243.00;;;-2.79;80.99
50672;BME280;46021;55.882;37.654;2022-12-10T11:04:46;99247.34;;;-2.73;80.00
50672;BME280;46021;55.882;37.654;2022-12-10T11:07:22;99243.16;;;-2.70;80.80
50672;BME280;46021;55.882;37.654;2022-12-10T11:09:52;99235.50;;;-2.70;80.14
50672;BME280;46021;55.882;37.654;2022-12-10T11:12:38;99233.88;;;-2.63;79.72
50672;BME280;46021;55.882;37.654;2022-12-10T11:15:29;99231.28;;;-2.66;80.16
50672;BME280;46021;55.882;37.654;2022-12-10T11:17:58;99226.94;;;-2.73;79.47
50672;BME280;46021;55.882;37.654;2022-12-10T11:20:27;99230.41;;;-2.68;79.30
50672;BME280;46021;55.882;37.654;2022-12-10T11:22:56;99222.63;;;-2.76;80.27
50672;BME280;46021;55.882;37.654;2022-12-10T11:25:38;99204.63;;;-2.87;80.63
50672;BME280;46021;55.882;37.654;2022-12-10T11:28:21;99210.63;;;-2.85;79.64
50672;BME280;46021;55.882;37.654;2022-12-10T11:30:57;99210.66;;;-2.83;80.27
50672;BME280;46021;55.882;37.654;2022-12-10T11:33:34;99205.47;;;-2.88;80.53
50672;BME280;46021;55.882;37.654;2022-12-10T11:36:18;99206.34;;;-2.86;79.93
50672;BME280;46021;55.882;37.654;2022-12-10T11:38:54;99202.00;;;-2.91;79.72
50672;BME280;46021;55.882;37.654;2022-12-10T11:41:31;99202.06;;;-2.88;80.69
50672;BME280;46021;55.882;37.654;2022-12-10T11:44:16;99202.88;;;-2.91;79.84
50672;BME280;46021;55.882;37.654;2022-12-10T11:46:57;99199.44;;;-2.93;79.76
50672;BME280;46021;55.882;37.654;2022-12-10T11:49:37;99195.06;;;-3.02;80.43
50672;BME280;46021;55.882;37.654;2022-12-10T11:52:12;99183.16;;;-3.04;80.49
50672;BME280;46021;55.882;37.654;2022-12-10T11:54:56;99187.59;;;-2.91;80.05
50672;BME280;46021;55.882;37.654;2022-12-10T11:57:33;99190.22;;;-2.85;80.76
50672;BME280;46021;55.882;37.654;2022-12-10T12:00:12;99191.09;;;-2.83;80.58
50672;BME280;46021;55.882;37.654;2022-12-10T12:02:55;99182.50;;;-2.88;80.33
50672;BME280;46021;55.882;37.654;2022-12-10T12:05:40;99171.38;;;-2.93;80.47
50672;BME280;46021;55.882;37.654;2022-12-10T12:08:17;99173.94;;;-2.93;80.14
50672;BME280;46021;55.882;37.654;2022-12-10T12:11:01;99179.22;;;-2.81;80.42
50672;BME280;46021;55.882;37.654;2022-12-10T12:13:36;99187.78;;;-2.76;80.75
50672;BME280;46021;55.882;37.654;2022-12-10T12:16:09;99184.44;;;-2.71;80.61
50672;BME280;46021;55.882;37.654;2022-12-10T12:18:43;99193.00;;;-2.68;80.31
50672;BME280;46021;55.882;37.654;2022-12-10T12:21:15;99182.72;;;-2.72;80.34
50672;BME280;46021;55.882;37.654;2022-12-10T12:23:47;99169.88;;;-2.79;80.20
50672;BME280;46021;55.882;37.654;2022-12-10T12:26:20;99181.88;;;-2.71;80.15
50672;BME280;46021;55.882;37.654;2022-12-10T12:28:52;99179.31;;;-2.73;80.59
50672;BME280;46021;55.882;37.654;2022-12-10T12:31:24;99170.75;;;-2.77;79.68
50672;BME280;46021;55.882;37.654;2022-12-10T12:33:56;99163.88;;;-2.82;80.01
50672;BME280;46021;55.882;37.654;2022-12-10T12:36:29;99163.84;;;-2.84;80.51
50672;BME280;46021;55.882;37.654;2022-12-10T12:39:02;99168.19;;;-2.78;80.56
50672;BME280;46021;55.882;37.654;2022-12-10T12:41:36;99162.09;;;-2.88;81.42
50672;BME280;46021;55.882;37.654;2022-12-10T12:44:12;99164.69;;;-2.86;81.13
50672;BME280;46021;55.882;37.654;2022-12-10T12:46:44;99160.28;;;-2.98;80.33
50672;BME280;46021;55.882;37.654;2022-12-10T12:49:19;99150.94;;;-2.96;80.94
50672;BME280;46021;55.882;37.654;2022-12-10T12:51:54;99156.88;;;-2.97;81.44
50672;BME280;46021;55.882;37.654;2022-12-10T12:54:23;99167.03;;;-2.99;81.30
50672;BME280;46021;55.882;37.654;2022-12-10T12:56:57;99173.94;;;-2.95;80.33
50672;BME280;46021;55.882;37.654;2022-12-10T12:59:46;99167.16;;;-2.92;80.82
50672;BME280;46021;55.882;37.654;2022-12-10T13:02:22;99156.88;;;-2.97;80.48
50672;BME280;46021;55.882;37.654;2022-12-10T13:04:53;99149.25;;;-2.96;81.17
50672;BME280;46021;55.882;37.654;2022-12-10T13:07:31;99164.53;;;-2.97;80.69
50672;BME280;46021;55.882;37.654;2022-12-10T13:10:23;99154.31;;;-3.00;80.42